Time;durP1;ratioP1;P1;durP2;ratioP2;P2;SDS_P1;SDS_P2;PMS_P1;PMS_P2;Temp;Humidity;BMP_temperature;BMP_pressure;BME280_temperature;BME280_humidity;BME280_pressure;Samples;Min_cycle;Max_cycle;Signal;HPM_P1;HPM_P2
2021/05/12 00:02:12;;;;;;;2.13;1.80;;;;;;;11.38;100.00;96001.03;5057845;28;20927;-42
2021/05/12 00:04:40;;;;;;;6.57;1.83;;;;;;;11.30;100.00;96005.13;5058103;28;20445;-42
2021/05/12 00:07:08;;;;;;;3.53;1.30;;;;;;;11.25;100.00;96012.44;5063021;28;21012;-36
2021/05/12 00:09:35;;;;;;;2.77;1.43;;;;;;;11.15;100.00;96001.91;5057771;28;20552;-36
2021/05/12 00:12:03;;;;;;;2.90;1.50;;;;;;;11.12;100.00;96007.31;5056804;28;20437;-36
2021/05/12 00:14:31;;;;;;;2.77;1.90;;;;;;;11.15;100.00;96012.31;5061313;28;20969;-42
2021/05/12 00:17:00;;;;;;;1.53;1.30;;;;;;;11.11;100.00;96017.88;5060389;28;20950;-36
2021/05/12 00:19:28;;;;;;;3.33;1.17;;;;;;;11.12;100.00;96019.53;5056579;28;20980;-42
2021/05/12 00:22:03;;;;;;;1.97;1.10;;;;;;;10.99;100.00;96018.75;5060254;28;20440;-36
2021/05/12 00:24:30;;;;;;;2.27;1.30;;;;;;;10.93;100.00;96017.44;5064798;28;20461;-37
2021/05/12 00:26:57;;;;;;;2.73;1.63;;;;;;;10.87;100.00;96022.22;5063102;28;20458;-37
2021/05/12 00:29:25;;;;;;;3.17;1.47;;;;;;;10.79;100.00;96025.41;5060042;28;20461;-43
2021/05/12 00:31:52;;;;;;;2.47;1.40;;;;;;;10.79;100.00;96025.41;5066775;28;20896;-36
2021/05/12 00:34:20;;;;;;;3.30;1.53;;;;;;;10.68;100.00;96024.50;5052125;28;20811;-37
2021/05/12 00:36:47;;;;;;;2.03;1.60;;;;;;;10.67;100.00;96022.84;5061408;28;20459;-43
2021/05/12 00:39:16;;;;;;;2.33;1.47;;;;;;;10.49;100.00;96009.38;5068751;28;20460;-43
2021/05/12 00:41:43;;;;;;;1.50;1.20;;;;;;;10.58;100.00;96028.69;5063449;28;20653;-43
2021/05/12 00:44:16;;;;;;;3.07;1.07;;;;;;;10.51;100.00;96009.25;5058048;28;20486;-37
2021/05/12 00:46:44;;;;;;;2.50;1.13;;;;;;;10.58;100.00;96024.31;5039699;28;20485;-36
2021/05/12 00:49:12;;;;;;;1.77;1.30;;;;;;;10.62;100.00;96025.75;5060046;28;20802;-42
2021/05/12 00:51:42;;;;;;;2.07;1.00;;;;;;;10.57;100.00;96027.88;5064966;28;20763;-43
2021/05/12 00:54:10;;;;;;;3.53;1.40;;;;;;;10.60;100.00;96027.66;5060828;28;20462;-37
2021/05/12 00:56:40;;;;;;;1.00;0.80;;;;;;;10.56;100.00;96023.63;5063247;28;20433;-43
2021/05/12 00:59:10;;;;;;;4.23;1.30;;;;;;;10.55;100.00;96029.72;5066046;28;21225;-37
2021/05/12 01:01:37;;;;;;;2.50;1.20;;;;;;;10.54;100.00;96033.28;5062574;28;20456;-44
2021/05/12 01:04:07;;;;;;;2.37;0.90;;;;;;;10.53;100.00;96026.41;5061999;28;21093;-37
2021/05/12 01:06:36;;;;;;;7.53;1.50;;;;;;;10.55;100.00;96034.94;5064882;28;20772;-37
2021/05/12 01:09:13;;;;;;;1.93;1.13;;;;;;;10.55;100.00;96037.53;5042098;28;20974;-36
2021/05/12 01:11:51;;;;;;;2.80;1.30;;;;;;;10.52;100.00;96032.56;5060201;28;20884;-37
2021/05/12 01:14:18;;;;;;;1.60;1.33;;;;;;;10.48;100.00;96038.91;5062586;28;20875;-43
2021/05/12 01:16:47;;;;;;;1.50;1.27;;;;;;;10.49;100.00;96043.19;5065297;28;20437;-36
2021/05/12 01:19:15;;;;;;;2.70;1.53;;;;;;;10.48;100.00;96046.72;5059000;28;20797;-43
2021/05/12 01:21:44;;;;;;;4.00;1.83;;;;;;;10.49;100.00;96051.00;5062557;28;20811;-44
2021/05/12 01:24:12;;;;;;;5.03;1.80;;;;;;;10.49;100.00;96051.00;5056626;28;20962;-45
2021/05/12 01:26:40;;;;;;;2.27;1.80;;;;;;;10.54;100.00;96048.88;5061138;28;20468;-43
2021/05/12 01:29:08;;;;;;;3.57;2.20;;;;;;;10.56;100.00;96054.84;5059399;28;20457;-35
2021/05/12 01:31:38;;;;;;;7.87;3.90;;;;;;;10.51;100.00;96059.53;5064921;28;20957;-41
2021/05/12 01:34:11;;;;;;;2.47;2.27;;;;;;;10.50;100.00;96051.81;5064308;28;20497;-35
2021/05/12 01:36:42;;;;;;;6.83;1.87;;;;;;;10.47;100.00;96057.25;5060157;28;20432;-41
2021/05/12 01:39:12;;;;;;;6.33;2.43;;;;;;;10.48;100.00;96059.72;5059821;28;20716;-36
2021/05/12 01:41:39;;;;;;;4.00;2.50;;;;;;;10.46;100.00;96064.22;5067287;28;20771;-41
2021/05/12 01:44:10;;;;;;;3.30;2.57;;;;;;;10.51;100.00;96063.88;5061829;28;20970;-35
2021/05/12 01:46:38;;;;;;;15.43;2.73;;;;;;;10.48;100.00;96057.13;5059515;28;20433;-35
2021/05/12 01:49:08;;;;;;;4.50;2.23;;;;;;;10.45;100.00;96064.34;5067491;28;20468;-46
2021/05/12 01:51:39;;;;;;;6.30;2.83;;;;;;;10.45;100.00;96072.16;5061866;28;20445;-38
2021/05/12 01:54:10;;;;;;;6.00;3.20;;;;;;;10.42;100.00;96062.78;5060351;28;20468;-44
2021/05/12 01:56:41;;;;;;;9.00;3.00;;;;;;;10.44;100.00;96065.25;5061544;28;20896;-44
2021/05/12 01:59:10;;;;;;;2.90;2.60;;;;;;;10.37;100.00;96062.25;5064998;28;20951;-41
2021/05/12 02:01:38;;;;;;;4.83;3.00;;;;;;;10.35;100.00;96058.94;5061263;28;20425;-41
2021/05/12 02:04:08;;;;;;;6.73;3.10;;;;;;;10.42;100.00;96060.19;5065518;28;20765;-35
2021/05/12 02:06:37;;;;;;;8.80;3.63;;;;;;;10.39;100.00;96062.97;5065697;28;20433;-35
2021/05/12 02:09:07;;;;;;;6.33;3.20;;;;;;;10.33;100.00;96047.78;5062394;28;20945;-35
2021/05/12 02:11:46;;;;;;;8.90;4.10;;;;;;;10.34;100.00;96057.28;5059917;28;20549;-35
2021/05/12 02:14:14;;;;;;;5.03;3.47;;;;;;;10.36;100.00;96050.19;5021944;28;20460;-35
2021/05/12 02:16:43;;;;;;;5.20;3.37;;;;;;;10.38;100.00;96053.50;5046312;28;21100;-35
2021/05/12 02:19:13;;;;;;;11.30;4.33;;;;;;;10.43;100.00;96051.44;5057550;28;20465;-41
2021/05/12 02:21:42;;;;;;;8.47;3.97;;;;;;;10.36;100.00;96054.56;5058733;28;20438;-42
2021/05/12 02:24:10;;;;;;;7.77;3.80;;;;;;;10.32;100.00;96060.94;5065802;28;20946;-43
2021/05/12 02:26:37;;;;;;;6.03;3.63;;;;;;;10.33;100.00;96046.97;5058325;28;20924;-37
2021/05/12 02:29:06;;;;;;;7.57;4.37;;;;;;;10.35;100.00;96053.75;5061182;28;20455;-44
2021/05/12 02:31:34;;;;;;;14.53;4.67;;;;;;;10.39;100.00;96041.34;5064762;28;20433;-43
2021/05/12 02:34:01;;;;;;;12.97;5.00;;;;;;;10.36;100.00;96050.19;5047780;28;20847;-43
2021/05/12 02:36:29;;;;;;;14.37;4.90;;;;;;;10.29;100.00;96043.75;5063997;28;20820;-37
2021/05/12 02:38:56;;;;;;;8.60;4.70;;;;;;;10.28;100.00;96044.69;5058990;28;20650;-37
2021/05/12 02:41:24;;;;;;;13.83;4.60;;;;;;;10.31;100.00;96044.47;5064012;28;20451;-43
2021/05/12 02:43:51;;;;;;;10.83;5.00;;;;;;;10.25;100.00;96052.69;5061739;28;20472;-37
2021/05/12 02:46:24;;;;;;;11.10;6.20;;;;;;;10.22;100.00;96050.31;5053794;28;20935;-43
2021/05/12 02:48:51;;;;;;;11.73;5.83;;;;;;;10.20;100.00;96049.59;5064625;28;20453;-43
2021/05/12 02:51:19;;;;;;;8.90;5.87;;;;;;;10.21;100.00;96051.25;5060849;28;20461;-37
2021/05/12 02:53:46;;;;;;;9.90;6.20;;;;;;;10.26;100.00;96043.94;5058781;28;20534;-42
2021/05/12 02:56:13;;;;;;;9.80;6.10;;;;;;;10.27;100.00;96045.63;5056492;28;20442;-43
2021/05/12 02:58:41;;;;;;;14.90;7.30;;;;;;;10.32;100.00;96047.91;5062421;28;20461;-42
2021/05/12 03:01:09;;;;;;;20.43;6.20;;;;;;;10.35;100.00;96043.34;5062232;28;20925;-42
2021/05/12 03:03:37;;;;;;;13.00;6.90;;;;;;;10.33;100.00;96045.19;5061897;28;20951;-37
2021/05/12 03:06:05;;;;;;;11.70;7.10;;;;;;;10.30;100.00;96045.41;5061989;28;20767;-37
2021/05/12 03:08:32;;;;;;;15.10;8.30;;;;;;;10.32;100.00;96046.13;5054826;28;20914;-44
2021/05/12 03:11:01;;;;;;;21.13;7.80;;;;;;;10.19;100.00;96032.34;5060201;28;20994;-42
2021/05/12 03:13:28;;;;;;;15.70;8.83;;;;;;;10.23;100.00;96048.56;5058810;28;20748;-42
2021/05/12 03:15:55;;;;;;;19.10;9.43;;;;;;;10.25;100.00;96044.88;5065095;28;20573;-42
2021/05/12 03:18:26;;;;;;;16.60;8.57;;;;;;;10.23;100.00;96049.38;5059467;28;20560;-42
2021/05/12 03:20:55;;;;;;;15.27;8.70;;;;;;;10.23;100.00;96051.97;5056892;28;20782;-37
2021/05/12 03:23:22;;;;;;;21.27;8.77;;;;;;;10.24;100.00;96055.44;5063649;28;20435;-36
2021/05/12 03:25:50;;;;;;;19.63;8.40;;;;;;;10.19;100.00;96053.16;5060882;28;20958;-37
2021/05/12 03:28:18;;;;;;;13.73;8.43;;;;;;;10.26;100.00;96059.56;5057988;28;20934;-37
2021/05/12 03:30:45;;;;;;;19.97;9.30;;;;;;;10.34;100.00;96057.28;5058026;28;20461;-37
2021/05/12 03:33:13;;;;;;;22.90;8.60;;;;;;;10.34;100.00;96057.28;5063702;28;20439;-43
2021/05/12 03:35:42;;;;;;;22.47;8.93;;;;;;;10.34;100.00;96057.28;5057840;28;20870;-42
2021/05/12 03:38:12;;;;;;;19.47;9.20;;;;;;;10.33;100.00;96054.78;5057164;28;20900;-37
2021/05/12 03:40:40;;;;;;;15.40;8.60;;;;;;;10.33;100.00;96058.19;5061956;28;20487;-36
2021/05/12 03:43:10;;;;;;;11.67;7.10;;;;;;;10.29;100.00;96048.97;5062483;28;21057;-43
2021/05/12 03:45:38;;;;;;;19.80;8.50;;;;;;;10.31;100.00;96051.47;5060490;28;21022;-42
2021/05/12 03:48:07;;;;;;;19.57;9.30;;;;;;;10.32;100.00;96053.13;5058343;28;20778;-42
2021/05/12 03:50:34;;;;;;;17.00;8.10;;;;;;;10.31;100.00;96052.28;5057237;28;20826;-37
2021/05/12 03:53:02;;;;;;;16.83;7.87;;;;;;;10.27;100.00;96045.63;5060045;28;20494;-36
2021/05/12 03:55:54;;;;;;;20.27;7.87;;;;;;;9.91;100.00;95990.94;5055289;28;20955;-39
2021/05/12 03:58:22;;;;;;;13.37;8.33;;;;;;;10.24;100.00;96048.44;4979281;28;20910;-37
2021/05/12 04:00:50;;;;;;;15.47;8.20;;;;;;;10.25;100.00;96063.09;4979751;28;20578;-42
2021/05/12 04:03:18;;;;;;;18.93;8.80;;;;;;;10.12;100.00;96040.66;4977508;28;20444;-37
2021/05/12 04:05:46;;;;;;;16.03;7.60;;;;;;;10.17;100.00;96049.78;4978480;28;21034;-37
2021/05/12 04:08:13;;;;;;;16.30;8.70;;;;;;;10.20;100.00;96054.81;4983161;28;20432;-36
2021/05/12 04:10:42;;;;;;;17.83;7.87;;;;;;;10.19;100.00;96053.16;4979364;28;20476;-43
2021/05/12 04:13:10;;;;;;;15.30;7.30;;;;;;;10.19;100.00;96058.34;4984000;28;20458;-37
2021/05/12 04:15:38;;;;;;;13.83;7.67;;;;;;;10.22;100.00;96058.13;4982411;28;20464;-36
2021/05/12 04:18:05;;;;;;;21.03;6.97;;;;;;;10.14;100.00;96052.63;4981014;28;21294;-36
2021/05/12 04:20:33;;;;;;;11.50;6.03;;;;;;;10.24;100.00;96056.25;4976491;28;20984;-42
2021/05/12 04:23:01;;;;;;;14.73;7.83;;;;;;;10.23;100.00;96064.97;4981788;28;20789;-43
2021/05/12 04:25:28;;;;;;;11.43;6.40;;;;;;;10.19;100.00;96055.75;4980771;28;20970;-36
2021/05/12 04:27:56;;;;;;;13.33;6.77;;;;;;;10.19;100.00;96058.34;4979195;28;20436;-42
2021/05/12 04:30:27;;;;;;;8.60;5.30;;;;;;;10.16;100.00;96063.75;4974483;28;20861;-42
2021/05/12 04:32:58;;;;;;;13.00;5.77;;;;;;;10.14;100.00;96060.41;4984676;28;20986;-36
2021/05/12 04:35:29;;;;;;;10.33;4.90;;;;;;;10.17;100.00;96057.59;4979331;28;20468;-36
2021/05/12 04:37:56;;;;;;;10.93;5.27;;;;;;;10.17;100.00;96068.00;4981361;28;20558;-42
2021/05/12 04:40:25;;;;;;;8.83;5.37;;;;;;;10.10;100.00;96069.34;4981145;28;20967;-42
2021/05/12 04:42:52;;;;;;;13.40;5.00;;;;;;;10.03;100.00;96075.91;4985502;28;20443;-36
2021/05/12 04:45:20;;;;;;;9.77;4.70;;;;;;;9.76;100.00;96036.19;4977495;28;20549;-42
2021/05/12 04:47:55;;;;;;;9.97;4.83;;;;;;;9.99;100.00;96071.84;4975690;28;20787;-36
2021/05/12 04:50:30;;;;;;;10.93;4.80;;;;;;;10.08;100.00;96070.38;4980944;28;20464;-42
2021/05/12 04:52:58;;;;;;;14.50;4.77;;;;;;;10.06;100.00;96065.31;4980019;28;20911;-42
2021/05/12 04:55:26;;;;;;;9.30;4.50;;;;;;;10.07;100.00;96066.13;4976203;28;20993;-42
2021/05/12 04:57:54;;;;;;;6.57;4.50;;;;;;;10.09;100.00;96067.69;4983356;28;20478;-42
2021/05/12 05:00:25;;;;;;;9.07;4.30;;;;;;;10.11;100.00;96070.19;4982833;28;20484;-44
2021/05/12 05:02:54;;;;;;;10.67;4.50;;;;;;;10.24;100.00;96066.63;4977667;28;20460;-42
2021/05/12 05:05:24;;;;;;;13.30;4.23;;;;;;;10.27;100.00;96071.66;4977279;28;20485;-36
2021/05/12 05:07:52;;;;;;;9.83;5.20;;;;;;;10.35;100.00;96078.91;4986108;28;20439;-36
2021/05/12 05:10:19;;;;;;;11.70;4.40;;;;;;;10.31;100.00;96077.47;4985902;28;20483;-42
2021/05/12 05:12:47;;;;;;;14.67;4.40;;;;;;;10.30;100.00;96071.44;4980295;28;20448;-42
2021/05/12 05:15:16;;;;;;;17.30;4.20;;;;;;;10.30;100.00;96084.44;4984888;28;20785;-42
2021/05/12 05:17:44;;;;;;;8.53;4.03;;;;;;;10.31;100.00;96083.50;4983557;28;20754;-42
2021/05/12 05:20:13;;;;;;;8.50;3.60;;;;;;;10.28;100.00;96080.25;4974962;28;20480;-42
2021/05/12 05:22:42;;;;;;;6.83;3.93;;;;;;;10.29;100.00;96082.78;4983498;28;20915;-43
2021/05/12 05:25:11;;;;;;;12.10;4.50;;;;;;;10.35;100.00;96082.34;4983858;28;20798;-42
2021/05/12 05:27:43;;;;;;;7.83;3.70;;;;;;;10.27;100.00;96082.06;4983729;28;20448;-42
2021/05/12 05:30:20;;;;;;;5.57;3.50;;;;;;;10.20;100.00;96086.00;4975998;28;20790;-37
2021/05/12 05:32:51;;;;;;;7.73;3.20;;;;;;;10.28;100.00;96095.88;4980409;28;20456;-42
2021/05/12 05:35:19;;;;;;;7.67;3.57;;;;;;;10.32;100.00;96092.13;4978844;28;20483;-42
2021/05/12 05:37:47;;;;;;;7.00;3.13;;;;;;;10.34;100.00;96093.69;4983210;28;20792;-36
2021/05/12 05:40:15;;;;;;;6.17;3.43;;;;;;;10.32;100.00;96094.75;4984535;28;20997;-42
2021/05/12 05:42:42;;;;;;;18.53;7.67;;;;;;;10.24;100.00;96097.84;4978214;28;20770;-36
2021/05/12 05:45:10;;;;;;;10.23;3.93;;;;;;;10.28;100.00;96107.13;4960148;28;21039;-36
2021/05/12 05:47:38;;;;;;;8.47;2.80;;;;;;;10.20;100.00;96104.22;4979397;28;20447;-42
2021/05/12 05:50:07;;;;;;;4.93;2.67;;;;;;;10.18;100.00;96103.47;4986445;28;20467;-42
2021/05/12 05:52:35;;;;;;;5.57;2.97;;;;;;;10.21;100.00;96100.69;4985280;28;20423;-42
2021/05/12 05:55:03;;;;;;;13.33;3.20;;;;;;;10.28;100.00;96104.53;4977921;28;20972;-43
2021/05/12 05:57:31;;;;;;;5.20;2.70;;;;;;;10.25;100.00;96109.09;4980696;28;20470;-44
2021/05/12 05:59:58;;;;;;;5.20;2.80;;;;;;;10.21;100.00;96108.47;4983453;28;20940;-37
2021/05/12 06:02:26;;;;;;;10.83;3.03;;;;;;;10.16;100.00;96114.94;4985065;28;20887;-44
2021/05/12 06:04:54;;;;;;;5.33;2.57;;;;;;;10.08;100.00;96117.19;4979754;28;20848;-43
2021/05/12 06:07:22;;;;;;;3.83;2.70;;;;;;;10.14;100.00;96122.84;4985545;28;20958;-43
2021/05/12 06:09:50;;;;;;;8.97;3.10;;;;;;;10.25;100.00;96122.09;4981873;28;20480;-43
2021/05/12 06:12:17;;;;;;;7.20;3.07;;;;;;;10.26;100.00;96131.56;4980702;28;20877;-43
2021/05/12 06:14:45;;;;;;;5.03;2.70;;;;;;;10.24;100.00;96123.84;4980531;28;20923;-37
2021/05/12 06:17:13;;;;;;;10.63;3.53;;;;;;;10.17;100.00;96133.00;4981918;28;21015;-43
2021/05/12 06:19:40;;;;;;;3.90;3.10;;;;;;;10.12;100.00;96127.31;4982111;28;20971;-43
2021/05/12 06:22:08;;;;;;;7.70;3.57;;;;;;;10.07;100.00;96118.13;4983240;28;20447;-43
2021/05/12 06:24:36;;;;;;;9.80;3.20;;;;;;;10.10;100.00;96134.38;4983606;28;20476;-45
2021/05/12 06:27:06;;;;;;;8.73;4.27;;;;;;;10.15;100.00;96134.91;4983406;28;20444;-39
2021/05/12 06:29:34;;;;;;;6.17;2.90;;;;;;;10.20;100.00;96127.63;4978745;28;21037;-45
2021/05/12 06:32:03;;;;;;;7.60;3.60;;;;;;;10.24;100.00;96133.44;4984032;28;20544;-40
2021/05/12 06:34:32;;;;;;;4.30;2.93;;;;;;;10.33;100.00;96127.63;4988927;28;20558;-40
2021/05/12 06:36:59;;;;;;;4.47;3.53;;;;;;;10.27;100.00;96133.22;4980116;28;20448;-45
2021/05/12 06:39:27;;;;;;;6.10;3.47;;;;;;;10.28;100.00;96129.69;4976771;28;20813;-39
2021/05/12 06:41:55;;;;;;;8.60;3.83;;;;;;;10.21;100.00;96133.63;4984713;28;21038;-40
2021/05/12 06:44:24;;;;;;;6.03;3.17;;;;;;;10.24;100.00;96131.66;4981231;28;20795;-39
2021/05/12 06:46:52;;;;;;;14.00;3.10;;;;;;;10.39;100.00;96128.00;4985096;28;21085;-40
2021/05/12 06:49:20;;;;;;;10.70;2.73;;;;;;;10.44;100.00;96130.28;4983548;28;21235;-39
2021/05/12 06:51:48;;;;;;;4.73;2.80;;;;;;;10.49;100.00;96117.81;4983196;28;20818;-39
2021/05/12 06:54:16;;;;;;;4.73;3.00;;;;;;;10.66;100.00;96131.31;4979493;28;20488;-39
2021/05/12 06:56:43;;;;;;;14.33;3.47;;;;;;;10.78;100.00;96133.06;4976896;28;20806;-39
2021/05/12 06:59:11;;;;;;;6.17;2.80;;;;;;;10.74;100.00;96130.75;4981006;28;20962;-45
2021/05/12 07:01:39;;;;;;;9.07;2.40;;;;;;;10.69;99.68;96130.28;4981281;28;20847;-45
2021/05/12 07:04:07;;;;;;;4.60;2.90;;;;;;;10.71;99.91;96131.84;4978303;28;20951;-45
2021/05/12 07:06:34;;;;;;;8.10;2.70;;;;;;;10.73;100.00;96131.72;4985068;28;20888;-39
2021/05/12 07:09:02;;;;;;;9.07;2.40;;;;;;;10.69;99.60;96131.09;4982828;28;20496;-39
2021/05/12 07:11:30;;;;;;;3.97;2.43;;;;;;;10.71;100.00;96124.03;4979697;28;20670;-47
2021/05/12 07:13:57;;;;;;;8.27;2.30;;;;;;;10.74;100.00;96134.22;4979182;28;20468;-45
2021/05/12 07:16:24;;;;;;;7.77;3.03;;;;;;;10.78;99.30;96127.88;4987915;28;20439;-39
2021/05/12 07:18:53;;;;;;;3.87;2.97;;;;;;;10.80;99.58;96144.19;4978409;28;20934;-45
2021/05/12 07:21:20;;;;;;;10.10;2.07;;;;;;;10.79;99.13;96146.91;4977780;28;21014;-45
2021/05/12 07:23:48;;;;;;;7.70;2.47;;;;;;;10.82;99.09;96152.72;4980121;28;20479;-39
2021/05/12 07:26:16;;;;;;;5.00;2.10;;;;;;;10.81;99.07;96143.25;4984217;28;20444;-39
2021/05/12 07:28:45;;;;;;;7.70;3.20;;;;;;;10.68;99.19;96124.22;4977581;28;20452;-39
2021/05/12 07:31:13;;;;;;;4.43;2.57;;;;;;;10.91;99.26;96141.66;4979188;28;20764;-39
2021/05/12 07:33:42;;;;;;;7.93;2.60;;;;;;;10.93;98.74;96139.81;4982580;28;20833;-45
2021/05/12 07:36:11;;;;;;;6.83;2.07;;;;;;;11.06;98.61;96140.56;4963658;28;20543;-39
2021/05/12 07:41:21;;;;;;;7.23;1.80;;;;;;;10.95;98.46;96132.72;4981762;28;20987;-39
2021/05/12 07:43:49;;;;;;;6.23;2.40;;;;;;;10.90;98.52;96141.78;4976347;28;20464;-39
2021/05/12 07:46:18;;;;;;;5.90;2.20;;;;;;;10.82;98.84;96131.91;4979058;28;20704;-38
2021/05/12 07:48:47;;;;;;;9.57;2.40;;;;;;;10.81;99.24;96134.59;4961828;28;21040;-45
2021/05/12 07:51:16;;;;;;;6.70;2.00;;;;;;;10.84;98.82;96124.81;4965591;28;20869;-45
2021/05/12 07:53:44;;;;;;;17.27;2.10;;;;;;;10.76;99.64;96114.09;4974455;28;20958;-45
2021/05/12 07:56:12;;;;;;;6.90;2.87;;;;;;;10.75;100.00;96117.66;4971779;28;20483;-45
2021/05/12 07:58:42;;;;;;;9.03;2.00;;;;;;;10.67;99.72;96112.16;4985655;28;20539;-39
2021/05/12 08:01:18;;;;;;;11.00;2.50;;;;;;;10.65;99.92;96114.03;4982285;28;20681;-45
2021/05/12 08:03:47;;;;;;;8.03;2.20;;;;;;;10.58;99.20;96101.56;4978113;28;20578;-39
2021/05/12 08:06:15;;;;;;;6.40;2.30;;;;;;;10.51;99.79;96093.34;4984034;28;20927;-39
2021/05/12 08:08:43;;;;;;;7.40;2.20;;;;;;;10.68;99.81;96108.59;4981921;28;20810;-39
2021/05/12 08:11:10;;;;;;;1.87;1.60;;;;;;;10.71;99.28;96103.22;4976091;28;20962;-39
2021/05/12 08:13:38;;;;;;;5.10;2.63;;;;;;;10.63;99.25;96105.53;4975955;28;20943;-39
2021/05/12 08:16:05;;;;;;;6.57;2.37;;;;;;;10.61;99.16;96107.38;4987025;28;20986;-45
2021/05/12 08:18:33;;;;;;;4.57;2.20;;;;;;;10.55;99.20;96107.78;4974014;28;20446;-39
2021/05/12 08:21:01;;;;;;;4.70;1.80;;;;;;;10.59;99.46;96111.03;4978404;28;20847;-45
2021/05/12 08:23:29;;;;;;;4.20;1.87;;;;;;;10.62;99.39;96116.84;4978008;28;20455;-39
2021/05/12 08:25:56;;;;;;;6.00;1.97;;;;;;;10.67;99.61;96109.56;4987223;28;20939;-45
2021/05/12 08:28:24;;;;;;;9.90;2.43;;;;;;;10.79;98.69;96111.31;4978529;28;20767;-39
2021/05/12 08:30:52;;;;;;;7.53;2.20;;;;;;;10.84;98.54;96106.59;4974672;28;20934;-45
2021/05/12 08:33:20;;;;;;;6.23;2.00;;;;;;;10.87;98.94;96111.59;4984507;28;20541;-45
2021/05/12 08:35:48;;;;;;;6.20;2.17;;;;;;;11.00;98.86;96109.78;4979213;28;21209;-39
2021/05/12 08:39:02;;;;;;;6.63;2.13;;;;;;;11.03;97.91;96114.75;4979803;28;20444;-39
2021/05/12 08:41:33;;;;;;;4.83;1.80;;;;;;;11.01;97.50;96111.44;4914610;29;20467;-39
2021/05/12 08:44:02;;;;;;;6.73;2.40;;;;;;;11.01;97.24;96108.00;4918436;28;20986;-44
2021/05/12 08:46:31;;;;;;;5.40;2.53;;;;;;;10.93;96.06;96113.78;4920801;29;20435;-39
2021/05/12 08:48:59;;;;;;;8.90;1.97;;;;;;;11.01;96.70;96106.25;4918329;28;20471;-39
2021/05/12 08:51:27;;;;;;;6.80;2.63;;;;;;;11.03;96.32;96104.34;4919901;29;20770;-45
2021/05/12 08:53:56;;;;;;;9.10;2.40;;;;;;;11.00;96.58;96119.34;4919556;28;21018;-45
2021/05/12 08:56:23;;;;;;;6.53;1.90;;;;;;;11.01;96.85;96103.63;4920962;29;20493;-39
2021/05/12 08:58:59;;;;;;;10.37;3.07;;;;;;;11.05;96.85;96112.88;4912772;28;20471;-45
2021/05/12 09:01:26;;;;;;;6.50;2.37;;;;;;;10.96;96.39;96110.94;4919884;29;21155;-45
2021/05/12 09:03:54;;;;;;;4.33;2.80;;;;;;;11.04;96.54;96103.41;4918352;28;20467;-39
2021/05/12 09:06:22;;;;;;;6.00;2.37;;;;;;;11.00;96.74;96106.34;4920552;29;20470;-45
2021/05/12 09:08:57;;;;;;;12.97;3.00;;;;;;;10.98;95.96;96097.81;4920335;28;20661;-39
2021/05/12 09:11:24;;;;;;;3.67;2.10;;;;;;;11.05;95.18;96106.84;4919366;29;20814;-45
2021/05/12 09:13:51;;;;;;;5.03;2.70;;;;;;;11.05;95.57;96099.84;4918750;28;20485;-45
2021/05/12 09:16:22;;;;;;;6.40;3.10;;;;;;;11.12;96.14;96098.47;4920056;28;20902;-45
2021/05/12 09:19:03;;;;;;;7.50;3.07;;;;;;;11.15;94.64;96094.81;4919364;28;20459;-39
2021/05/12 09:21:58;;;;;;;12.67;2.50;;;;;;;11.11;95.00;96094.22;4917208;29;20943;-45
2021/05/12 09:24:31;;;;;;;3.97;2.23;;;;;;;11.20;95.66;96096.13;4886909;28;20467;-39
2021/05/12 09:27:00;;;;;;;4.50;2.00;;;;;;;11.32;95.32;96087.44;4918848;29;20424;-45
2021/05/12 09:29:31;;;;;;;5.53;2.07;;;;;;;11.43;94.06;96090.09;4916343;28;20482;-45
2021/05/12 09:32:04;;;;;;;7.60;2.30;;;;;;;11.56;94.44;96080.44;4918665;29;20899;-39
2021/05/12 09:34:52;;;;;;;4.03;1.93;;;;;;;11.64;93.39;96085.13;4918996;28;20951;-45
2021/05/12 09:37:24;;;;;;;5.50;2.27;;;;;;;11.77;94.03;96086.69;4920058;29;20443;-39
2021/05/12 09:39:52;;;;;;;4.40;1.97;;;;;;;11.86;92.89;96088.59;4918872;28;20471;-45
2021/05/12 09:42:21;;;;;;;4.20;1.73;;;;;;;11.78;91.46;96088.34;4920288;29;20981;-39
2021/05/12 09:45:08;;;;;;;3.03;1.67;;;;;;;11.68;91.12;96092.59;4918696;28;20882;-39
2021/05/12 09:47:37;;;;;;;7.50;2.13;;;;;;;11.42;91.57;96091.03;4919565;29;20443;-45
2021/05/12 09:50:09;;;;;;;4.23;2.37;;;;;;;11.29;91.29;96094.66;4918221;28;20990;-39
2021/05/12 09:52:37;;;;;;;6.50;1.87;;;;;;;11.28;92.65;96095.59;4917593;29;20489;-44
2021/05/12 09:55:06;;;;;;;3.70;1.63;;;;;;;10.77;92.70;96001.22;4918169;28;20958;-45
2021/05/12 09:57:34;;;;;;;3.57;1.70;;;;;;;11.41;92.95;96089.38;4919384;29;20484;-39
2021/05/12 10:00:25;;;;;;;3.73;1.97;;;;;;;11.40;92.52;96098.13;4918603;28;20466;-45
2021/05/12 10:02:54;;;;;;;4.67;3.50;;;;;;;11.45;92.84;96085.63;4918358;28;20970;-40
2021/05/12 10:05:21;;;;;;;11.17;4.03;;;;;;;11.54;93.00;96090.16;4915848;28;20802;-39
2021/05/12 10:07:52;;;;;;;10.47;2.13;;;;;;;11.71;91.81;96087.13;4919747;29;20526;-45
2021/05/12 10:10:42;;;;;;;6.27;2.50;;;;;;;11.67;91.32;96085.72;4918359;28;20788;-45
2021/05/12 10:13:10;;;;;;;4.33;1.97;;;;;;;11.63;91.58;96086.88;4913514;29;20443;-45
2021/05/12 10:15:40;;;;;;;4.10;1.50;;;;;;;11.69;90.87;96086.44;4920819;28;20973;-39
2021/05/12 10:18:10;;;;;;;13.43;2.10;;;;;;;11.72;89.74;96087.97;4918894;28;20451;-39
2021/05/12 10:20:39;;;;;;;2.70;1.50;;;;;;;11.73;90.76;96080.06;4917516;28;20475;-39
2021/05/12 10:23:08;;;;;;;6.47;1.80;;;;;;;11.75;89.99;96077.31;4919494;29;20949;-39
2021/05/12 10:25:37;;;;;;;7.03;2.13;;;;;;;11.80;90.24;96081.25;4918742;28;20464;-45
2021/05/12 10:28:07;;;;;;;7.80;1.70;;;;;;;11.75;89.08;96072.94;4918525;29;20772;-39
2021/05/12 10:30:35;;;;;;;6.73;1.80;;;;;;;11.76;89.72;96073.75;4917932;28;20798;-45
2021/05/12 10:33:03;;;;;;;10.50;2.80;;;;;;;11.89;90.52;96075.34;4918383;28;20431;-45
2021/05/12 10:35:32;;;;;;;8.30;1.70;;;;;;;11.98;89.24;96074.66;4917894;28;20997;-45
2021/05/12 10:38:01;;;;;;;6.70;2.07;;;;;;;11.88;88.51;96073.69;4916864;29;20446;-45
2021/05/12 10:40:31;;;;;;;3.53;1.43;;;;;;;11.97;88.66;96066.94;4918833;28;20471;-39
2021/05/12 10:43:06;;;;;;;4.30;2.07;;;;;;;12.10;87.55;96072.88;4917719;29;20463;-45
2021/05/12 10:45:57;;;;;;;5.87;1.60;;;;;;;12.18;87.69;96060.06;4914458;28;20894;-45
2021/05/12 10:51:34;;;;;;;5.30;1.53;;;;;;;11.82;86.91;95971.59;4979011;28;20798;-96
2021/05/12 10:54:06;;;;;;;12.23;2.27;;;;;;;10.66;85.68;95774.78;5006439;28;20556;-96
2021/05/12 10:57:07;;;;;;;5.97;2.23;;;;;;;12.39;85.60;96064.50;5004640;28;20511;-96
2021/05/12 10:59:54;;;;;;;38.90;19.23;;;;;;;10.97;85.81;95794.91;5003320;28;20478;-95
2021/05/12 11:03:01;;;;;;;3.70;2.13;;;;;;;12.23;84.72;95943.97;5016810;28;20476;-96
2021/05/12 11:05:59;;;;;;;3.27;1.50;;;;;;;12.31;83.82;95952.03;5012809;28;20449;-96
2021/05/12 11:13:07;;;;;;;5.60;1.50;;;;;;;13.75;80.54;96045.47;5028091;28;20561;-96
2021/05/12 11:15:51;;;;;;;9.43;1.67;;;;;;;13.77;78.62;96051.41;4939485;28;20564;-39
2021/05/12 11:18:49;;;;;;;11.73;1.53;;;;;;;13.94;78.83;96042.16;4937036;28;20433;-39
2021/05/12 11:21:34;;;;;;;6.70;2.27;;;;;;;14.17;78.48;96038.41;4934001;28;20536;-39
2021/05/12 11:24:21;;;;;;;5.67;0.97;;;;;;;14.45;77.42;96046.41;4942935;28;20582;-39
2021/05/12 11:27:16;;;;;;;5.60;1.37;;;;;;;14.57;76.12;96028.81;4936761;28;20933;-45
2021/05/12 11:32:36;;;;;;;3.93;1.80;;;;;;;14.84;73.63;96029.03;4937253;28;20909;-46
2021/05/12 11:35:07;;;;;;;6.23;1.60;;;;;;;14.82;73.11;96034.41;4935936;28;20806;-45
2021/05/12 11:37:39;;;;;;;11.77;5.20;;;;;;;14.76;73.93;96029.72;4936452;28;20938;-45
2021/05/12 11:40:09;;;;;;;12.43;4.83;;;;;;;15.32;73.46;96032.59;4926623;28;20475;-37
2021/05/12 11:42:45;;;;;;;5.43;1.33;;;;;;;15.57;72.14;96021.53;4934369;28;20960;-43
2021/05/12 11:45:17;;;;;;;6.20;1.57;;;;;;;15.67;71.36;96022.34;4937970;28;20964;-37
2021/05/12 11:47:58;;;;;;;3.87;1.30;;;;;;;15.92;71.58;96016.53;4938046;28;20936;-37
2021/05/12 11:50:27;;;;;;;3.37;1.23;;;;;;;16.14;68.93;96016.19;4935776;28;20484;-43
2021/05/12 11:52:55;;;;;;;5.40;1.30;;;;;;;16.15;68.40;96012.59;4932462;28;20467;-36
2021/05/12 11:55:27;;;;;;;2.40;0.90;;;;;;;16.05;67.00;96011.81;4939039;28;20972;-43